createdAt,value
2019-01-16T00:02:30.272Z,33.53
2019-01-16T00:05:15.111Z,27.17
2019-01-16T00:07:57.032Z,36.47
2019-01-16T00:10:45.484Z,22.67
2019-01-16T00:13:31.317Z,35.57
2019-01-16T00:16:08.386Z,33.57
2019-01-16T00:18:53.337Z,31.23
2019-01-16T00:21:47.698Z,27.07
2019-01-16T00:24:33.934Z,31.30
2019-01-16T00:27:21.301Z,29.83
2019-01-16T00:30:08.338Z,22.73
2019-01-16T00:32:56.927Z,28.37
2019-01-16T00:35:44.066Z,22.50
2019-01-16T00:38:31.324Z,22.63
2019-01-16T00:41:26.143Z,26.40
2019-01-16T00:44:13.289Z,21.57
2019-01-16T00:47:03.810Z,23.93
2019-01-16T00:49:52.463Z,28.17
2019-01-16T00:52:37.188Z,21.60
2019-01-16T00:55:28.680Z,26.23
2019-01-16T00:58:29.285Z,27.17
2019-01-16T01:01:20.930Z,25.43
2019-01-16T01:04:10.768Z,20.90
2019-01-16T01:06:57.787Z,24.33
2019-01-16T01:09:45.006Z,23.97
2019-01-16T01:12:33.750Z,20.37
2019-01-16T01:15:28.623Z,18.23
2019-01-16T01:18:24.419Z,19.43
2019-01-16T01:21:19.284Z,24.10
2019-01-16T01:24:05.497Z,19.77
2019-01-16T01:27:05.278Z,19.70
2019-01-16T01:30:05.727Z,17.20
2019-01-16T01:32:54.861Z,27.20
2019-01-16T01:35:55.277Z,24.80
2019-01-16T01:38:42.404Z,24.93
2019-01-16T01:41:36.781Z,18.33
2019-01-16T01:44:31.302Z,16.83
2019-01-16T01:47:28.661Z,24.07
2019-01-16T01:50:29.513Z,20.67
2019-01-16T01:53:27.174Z,21.53
2019-01-16T01:56:15.846Z,21.70
2019-01-16T01:59:14.293Z,20.60
2019-01-16T02:02:09.339Z,22.93
2019-01-16T02:04:50.627Z,29.27
2019-01-16T02:07:39.187Z,19.70
2019-01-16T02:10:28.657Z,21.93
2019-01-16T02:13:15.794Z,19.63
2019-01-16T02:16:04.221Z,24.37
2019-01-16T02:18:51.470Z,21.23
2019-01-16T02:21:35.337Z,25.10
2019-01-16T02:24:28.198Z,24.53
2019-01-16T02:27:12.999Z,28.77
2019-01-16T02:30:00.087Z,20.17
2019-01-16T02:32:39.979Z,19.30
2019-01-16T02:35:27.222Z,25.73
2019-01-16T02:38:11.039Z,21.60
2019-01-16T02:40:54.253Z,26.93
2019-01-16T02:43:41.484Z,28.07
2019-01-16T02:46:36.408Z,24.50
2019-01-16T02:49:16.917Z,28.47
2019-01-16T02:52:08.529Z,30.37
2019-01-16T02:55:00.458Z,24.87
2019-01-16T02:57:47.294Z,26.93
2019-01-16T03:00:27.063Z,28.33
2019-01-16T03:03:16.318Z,31.97
2019-01-16T03:06:06.528Z,25.60
2019-01-16T03:08:58.117Z,25.90
2019-01-16T03:11:55.566Z,19.27
2019-01-16T03:14:40.896Z,27.17
2019-01-16T03:17:35.641Z,20.10
2019-01-16T03:20:36.723Z,23.10
2019-01-16T03:23:35.316Z,23.03
2019-01-16T03:26:23.977Z,17.23
2019-01-16T03:29:11.223Z,23.13
2019-01-16T03:31:58.259Z,22.63
2019-01-16T03:34:55.975Z,21.60
2019-01-16T03:37:35.253Z,17.07
2019-01-16T03:40:23.464Z,18.37
2019-01-16T03:43:24.115Z,18.43
2019-01-16T03:46:11.046Z,20.33
2019-01-16T03:48:58.218Z,22.43
2019-01-16T03:52:04.917Z,19.83
2019-01-16T03:54:53.191Z,20.90
2019-01-16T03:57:41.581Z,19.20
2019-01-16T04:00:31.688Z,19.47
2019-01-16T04:03:18.773Z,21.67
2019-01-16T04:06:02.582Z,23.20
2019-01-16T04:09:06.409Z,21.53
2019-01-16T04:12:04.185Z,23.03
2019-01-16T04:14:51.361Z,24.10
2019-01-16T04:17:46.122Z,24.57
2019-01-16T04:20:32.941Z,26.97
2019-01-16T04:23:18.923Z,22.80
2019-01-16T04:26:05.771Z,23.43
2019-01-16T04:29:00.405Z,27.53
2019-01-16T04:31:54.958Z,17.23
2019-01-16T04:34:44.580Z,17.40
2019-01-16T04:37:33.118Z,28.17
2019-01-16T04:40:26.782Z,16.40
2019-01-16T04:43:13.992Z,26.97
2019-01-16T04:46:11.712Z,19.97
2019-01-16T04:49:00.273Z,27.63
2019-01-16T04:51:52.104Z,29.20
2019-01-16T04:54:40.720Z,25.43
2019-01-16T04:57:38.525Z,22.90
2019-01-16T05:00:27.441Z,26.83
2019-01-16T05:03:16.943Z,21.40
2019-01-16T05:05:59.795Z,28.90
2019-01-16T05:08:39.467Z,29.63
2019-01-16T05:11:30.777Z,31.83
2019-01-16T05:14:07.472Z,30.33
2019-01-16T05:17:01.952Z,31.37
2019-01-16T05:19:59.451Z,31.13
2019-01-16T05:22:47.995Z,33.63
2019-01-16T05:25:27.199Z,32.83
2019-01-16T05:28:12.272Z,30.13
2019-01-16T05:31:07.024Z,34.47
2019-01-16T05:33:58.305Z,33.40
2019-01-16T05:36:45.527Z,32.30
2019-01-16T05:39:34.247Z,25.23
2019-01-16T05:42:20.867Z,28.70
2019-01-16T05:45:07.757Z,24.93
2019-01-16T05:48:14.480Z,35.83
2019-01-16T05:51:14.115Z,30.17
2019-01-16T05:54:01.347Z,29.70
2019-01-16T05:56:58.766Z,25.87
2019-01-16T05:59:46.245Z,19.53
2019-01-16T06:02:50.185Z,19.30
2019-01-16T06:05:34.197Z,18.67
2019-01-16T06:08:10.984Z,21.23
2019-01-16T06:11:06.693Z,16.80
2019-01-16T06:13:55.192Z,18.63
2019-01-16T06:16:55.791Z,19.03
2019-01-16T06:19:53.893Z,18.83
2019-01-16T06:22:49.479Z,14.93
2019-01-16T06:25:36.436Z,15.87
2019-01-16T06:28:43.272Z,10.00
2019-01-16T06:31:30.038Z,18.87
2019-01-16T06:34:06.772Z,13.53
2019-01-16T06:37:10.197Z,8.70
2019-01-16T06:40:04.658Z,7.07
2019-01-16T06:42:51.614Z,6.00
2019-01-16T06:45:40.313Z,8.90
2019-01-16T06:48:27.659Z,8.97
2019-01-16T06:51:14.801Z,7.57
2019-01-16T06:54:03.752Z,10.80
2019-01-16T06:56:51.837Z,10.17
2019-01-16T06:59:35.420Z,13.33
2019-01-16T07:02:30.346Z,7.23
2019-01-16T07:05:36.875Z,8.03
2019-01-16T07:08:37.468Z,9.87
2019-01-16T07:11:26.036Z,8.33
2019-01-16T07:14:17.525Z,11.30
2019-01-16T07:17:11.989Z,9.23
2019-01-16T07:20:01.408Z,5.47
2019-01-16T07:22:56.118Z,5.33
2019-01-16T07:25:36.785Z,4.90
2019-01-16T07:28:31.008Z,5.70
2019-01-16T07:31:19.776Z,6.03
2019-01-16T07:34:07.115Z,6.17
2019-01-16T07:37:07.856Z,3.80
2019-01-16T07:39:44.796Z,5.40
2019-01-16T07:42:48.582Z,5.50
2019-01-16T07:45:49.056Z,6.57
2019-01-16T07:48:36.447Z,9.20
2019-01-16T07:51:33.815Z,29.00
2019-01-16T07:54:21.007Z,52.73
2019-01-16T07:57:15.336Z,19.37
2019-01-16T08:00:05.276Z,14.03
2019-01-16T08:02:57.755Z,7.73
2019-01-16T08:05:52.602Z,6.73
2019-01-16T08:08:50.106Z,5.17
2019-01-16T08:11:37.242Z,2.80
2019-01-16T08:14:37.990Z,3.80
2019-01-16T08:17:22.619Z,2.83
2019-01-16T08:20:11.974Z,3.37
2019-01-16T08:23:00.826Z,2.10
2019-01-16T08:26:00.083Z,1.70
2019-01-16T08:28:57.432Z,8.57
2019-01-16T08:31:39.198Z,6.77
2019-01-16T08:34:33.787Z,6.10
2019-01-16T08:37:18.171Z,7.93
2019-01-16T08:40:02.715Z,6.07
2019-01-16T08:42:47.046Z,9.93
2019-01-16T08:45:47.763Z,13.70
2019-01-16T08:48:45.072Z,17.53
2019-01-16T08:51:32.344Z,18.13
2019-01-16T08:54:19.394Z,31.53
2019-01-16T08:57:26.086Z,21.90
2019-01-16T09:00:23.455Z,30.57
2019-01-16T09:03:10.255Z,38.23
2019-01-16T09:05:57.444Z,34.67
2019-01-16T09:08:53.307Z,40.30
2019-01-16T09:11:54.083Z,29.40
2019-01-16T09:14:41.324Z,32.53
2019-01-16T09:17:42.405Z,27.47
2019-01-16T09:20:31.729Z,37.43
2019-01-16T09:23:20.286Z,35.33
2019-01-16T09:26:07.277Z,35.50
2019-01-16T09:29:01.929Z,35.77
2019-01-16T09:31:49.088Z,34.80
2019-01-16T09:34:38.177Z,37.83
2019-01-16T09:37:42.352Z,36.83
2019-01-16T09:40:37.721Z,40.70
2019-01-16T09:43:38.252Z,37.67
2019-01-16T09:46:25.124Z,43.17
2019-01-16T09:49:08.478Z,36.30
2019-01-16T09:52:02.814Z,36.13
2019-01-16T09:54:59.001Z,34.53
2019-01-16T09:57:45.910Z,33.87
2019-01-16T10:00:39.270Z,35.93
2019-01-16T10:03:26.253Z,40.20
2019-01-16T10:06:17.653Z,40.93
2019-01-16T10:09:14.926Z,45.57
2019-01-16T10:12:02.397Z,30.67
2019-01-16T10:14:46.530Z,34.80
2019-01-16T10:17:34.036Z,41.63
2019-01-16T10:20:22.563Z,33.83
2019-01-16T10:23:10.103Z,33.97
2019-01-16T10:25:58.580Z,39.27
2019-01-16T10:28:51.178Z,36.13
2019-01-16T10:31:31.344Z,44.03
2019-01-16T10:34:18.465Z,38.33
2019-01-16T10:37:06.986Z,33.63
2019-01-16T10:40:03.575Z,40.03
2019-01-16T10:42:52.228Z,39.77
2019-01-16T10:45:40.772Z,37.20
2019-01-16T10:48:29.343Z,42.03
2019-01-16T10:51:23.735Z,42.30
2019-01-16T10:54:19.345Z,39.40
2019-01-16T10:57:07.361Z,40.30
2019-01-16T10:59:54.358Z,36.00
2019-01-16T11:02:42.306Z,39.40
2019-01-16T11:05:43.020Z,39.77
2019-01-16T11:08:32.012Z,42.43
2019-01-16T11:11:26.419Z,38.57
2019-01-16T11:14:13.398Z,36.40
2019-01-16T11:17:07.903Z,46.27
2019-01-16T11:19:56.473Z,34.53
2019-01-16T11:22:43.358Z,31.33
2019-01-16T11:25:32.076Z,43.73
2019-01-16T11:28:19.663Z,37.37
2019-01-16T11:31:13.003Z,35.60
2019-01-16T11:34:04.370Z,39.93
2019-01-16T11:37:01.871Z,36.07
2019-01-16T11:39:50.334Z,40.87
2019-01-16T11:42:42.089Z,40.80
2019-01-16T11:45:30.578Z,30.67
2019-01-16T11:48:17.709Z,30.27
2019-01-16T11:51:04.847Z,44.07
2019-01-16T11:53:46.882Z,40.63
2019-01-16T11:56:41.645Z,41.43
2019-01-16T11:59:36.072Z,41.50
2019-01-16T12:02:38.621Z,29.73
2019-01-16T12:05:44.691Z,31.93
2019-01-16T12:08:32.416Z,31.30
2019-01-16T12:11:16.148Z,38.47
2019-01-16T12:14:13.652Z,33.13
2019-01-16T12:17:17.166Z,39.57
2019-01-16T12:20:04.282Z,34.57
2019-01-16T12:23:02.254Z,32.47
2019-01-16T12:25:49.137Z,39.97
2019-01-16T12:28:37.630Z,37.97
2019-01-16T12:31:21.230Z,35.13
2019-01-16T12:34:08.423Z,37.70
2019-01-16T12:36:57.345Z,41.93
2019-01-16T12:39:44.658Z,35.80
2019-01-16T12:42:51.128Z,44.57
2019-01-16T12:45:38.409Z,38.80
2019-01-16T12:48:25.231Z,35.27
2019-01-16T12:51:33.762Z,33.50
2019-01-16T12:54:20.784Z,35.67
2019-01-16T12:57:21.315Z,32.50
2019-01-16T13:00:24.776Z,38.10
2019-01-16T13:03:22.367Z,34.77
2019-01-16T13:06:28.742Z,30.97
2019-01-16T13:09:09.688Z,40.07
2019-01-16T13:12:16.387Z,41.53
2019-01-16T13:15:04.982Z,26.13
2019-01-16T13:18:08.460Z,39.00
2019-01-16T13:21:05.019Z,39.63
2019-01-16T13:23:43.157Z,36.07
2019-01-16T13:26:30.352Z,36.20
2019-01-16T13:29:17.105Z,27.57
2019-01-16T13:32:18.315Z,38.20
2019-01-16T13:35:18.952Z,32.70
2019-01-16T13:38:10.489Z,39.07
2019-01-16T13:40:59.073Z,34.00
2019-01-16T13:43:47.541Z,31.23
2019-01-16T13:46:42.286Z,36.57
2019-01-16T13:49:32.958Z,32.50
2019-01-16T13:52:24.204Z,36.67
2019-01-16T13:55:11.111Z,35.57
2019-01-16T13:58:06.479Z,37.20
2019-01-16T14:00:55.133Z,41.30
2019-01-16T14:03:52.421Z,30.13
2019-01-16T14:06:50.375Z,30.97
2019-01-16T14:09:38.766Z,33.30
2019-01-16T14:12:24.228Z,42.47
2019-01-16T14:15:21.465Z,33.70
2019-01-16T14:18:00.875Z,27.53
2019-01-16T14:20:40.126Z,36.83
2019-01-16T14:23:37.521Z,36.00
2019-01-16T14:26:30.733Z,38.27
2019-01-16T14:29:17.770Z,35.37
2019-01-16T14:31:59.687Z,32.17
2019-01-16T14:34:44.156Z,29.33
2019-01-16T14:37:35.918Z,25.50
2019-01-16T14:40:31.435Z,37.37
2019-01-16T14:43:26.619Z,43.77
2019-01-16T14:46:15.793Z,35.43
2019-01-16T14:49:17.195Z,37.13
2019-01-16T14:52:00.491Z,35.37
2019-01-16T14:54:55.005Z,35.30
2019-01-16T14:57:55.675Z,35.20
2019-01-16T15:00:43.074Z,35.70
2019-01-16T15:03:30.536Z,33.50
2019-01-16T15:06:15.053Z,40.30
2019-01-16T15:09:22.294Z,39.10
2019-01-16T15:12:16.523Z,29.83
2019-01-16T15:15:05.604Z,36.47
2019-01-16T15:17:47.566Z,41.13
2019-01-16T15:20:36.735Z,37.93
2019-01-16T15:23:23.768Z,42.67
2019-01-16T15:26:05.818Z,33.47
2019-01-16T15:28:54.225Z,31.43
2019-01-16T15:31:37.971Z,38.43
2019-01-16T15:34:31.815Z,32.73
2019-01-16T15:37:19.150Z,35.10
2019-01-16T15:39:59.830Z,30.30
2019-01-16T15:42:57.714Z,26.97
2019-01-16T15:46:04.344Z,32.63
2019-01-16T15:48:51.526Z,31.80
2019-01-16T15:51:46.331Z,35.77
2019-01-16T15:54:53.352Z,33.97
2019-01-16T15:57:31.510Z,33.43
2019-01-16T16:00:16.931Z,39.50
2019-01-16T16:03:11.448Z,34.27
2019-01-16T16:06:09.254Z,29.97
2019-01-16T16:08:56.348Z,30.37
2019-01-16T16:11:47.674Z,33.73
2019-01-16T16:14:35.285Z,32.63
2019-01-16T16:17:36.204Z,32.47
2019-01-16T16:20:28.895Z,31.73
2019-01-16T16:23:26.128Z,30.60
2019-01-16T16:26:17.601Z,33.97
2019-01-16T16:29:02.147Z,30.67
2019-01-16T16:31:53.567Z,34.10
2019-01-16T16:34:40.835Z,37.57
2019-01-16T16:37:25.866Z,31.60
2019-01-16T16:40:23.402Z,35.27
2019-01-16T16:43:11.943Z,29.57
2019-01-16T16:45:59.385Z,32.60
2019-01-16T16:48:37.752Z,33.83
2019-01-16T16:51:19.715Z,36.53
2019-01-16T16:54:06.784Z,33.73
2019-01-16T16:56:53.937Z,30.83
2019-01-16T16:59:42.794Z,29.77
2019-01-16T17:02:30.289Z,38.27
2019-01-16T17:05:19.395Z,30.77
2019-01-16T17:07:57.130Z,36.33
2019-01-16T17:10:49.041Z,29.73
2019-01-16T17:13:49.718Z,36.73
2019-01-16T17:16:41.466Z,32.30
2019-01-16T17:19:33.189Z,32.33
2019-01-16T17:22:24.550Z,29.93
2019-01-16T17:25:14.441Z,32.13
2019-01-16T17:28:01.599Z,29.10
2019-01-16T17:31:02.042Z,25.10
2019-01-16T17:33:49.195Z,26.10
2019-01-16T17:36:25.860Z,33.20
2019-01-16T17:39:20.188Z,26.53
2019-01-16T17:42:06.336Z,26.53
2019-01-16T17:45:10.063Z,24.30
2019-01-16T17:48:16.640Z,24.47
2019-01-16T17:51:05.831Z,27.37
2019-01-16T17:54:00.337Z,30.43
2019-01-16T17:56:48.965Z,32.13
2019-01-16T17:59:52.321Z,24.50
2019-01-16T18:02:36.239Z,23.40
2019-01-16T18:05:31.379Z,25.43
2019-01-16T18:08:31.144Z,24.67
2019-01-16T18:11:31.648Z,22.77
2019-01-16T18:14:12.934Z,22.17
2019-01-16T18:17:07.832Z,23.03
2019-01-16T18:19:59.583Z,20.80
2019-01-16T18:22:48.680Z,23.17
2019-01-16T18:25:37.517Z,18.73
2019-01-16T18:28:25.554Z,21.00
2019-01-16T18:31:29.235Z,19.80
2019-01-16T18:34:20.398Z,23.27
2019-01-16T18:37:02.564Z,20.70
2019-01-16T18:39:49.480Z,25.73
2019-01-16T18:42:38.093Z,21.90
2019-01-16T18:45:36.036Z,25.97
2019-01-16T18:48:24.770Z,33.57
2019-01-16T18:51:16.278Z,25.67
2019-01-16T18:54:03.833Z,26.10
2019-01-16T18:56:45.577Z,35.77
2019-01-16T18:59:36.475Z,26.70
2019-01-16T19:02:20.858Z,29.37
2019-01-16T19:05:08.339Z,23.77
2019-01-16T19:07:56.822Z,28.13
2019-01-16T19:10:39.686Z,25.33
2019-01-16T19:13:27.003Z,21.67
2019-01-16T19:16:15.600Z,34.80
2019-01-16T19:19:07.006Z,23.47
2019-01-16T19:21:59.681Z,22.03
2019-01-16T19:24:54.130Z,34.53
2019-01-16T19:27:47.349Z,23.77
2019-01-16T19:30:43.074Z,28.77
2019-01-16T19:33:30.122Z,23.57
2019-01-16T19:36:27.969Z,25.53
2019-01-16T19:39:20.023Z,28.20
2019-01-16T19:42:08.870Z,21.77
2019-01-16T19:44:57.832Z,18.93
2019-01-16T19:47:50.809Z,19.23
2019-01-16T19:50:34.909Z,22.47
2019-01-16T19:53:22.314Z,18.13
2019-01-16T19:56:26.447Z,17.57
2019-01-16T19:59:04.912Z,16.53
2019-01-16T20:01:58.136Z,20.27
2019-01-16T20:04:45.367Z,12.80
2019-01-16T20:07:40.635Z,11.67
2019-01-16T20:10:19.933Z,13.67
2019-01-16T20:12:57.726Z,18.77
2019-01-16T20:15:58.200Z,11.33
2019-01-16T20:18:47.516Z,15.43
2019-01-16T20:21:30.459Z,15.03
2019-01-16T20:24:19.311Z,13.33
2019-01-16T20:27:09.264Z,16.37
2019-01-16T20:29:50.120Z,17.87
2019-01-16T20:32:42.447Z,10.33
2019-01-16T20:35:31.357Z,16.67
2019-01-16T20:38:16.819Z,13.73
2019-01-16T20:41:04.033Z,11.53
2019-01-16T20:43:49.496Z,12.83
2019-01-16T20:46:35.378Z,14.27
2019-01-16T20:49:32.200Z,17.50
2019-01-16T20:52:19.367Z,11.57
2019-01-16T20:55:06.746Z,10.47
2019-01-16T20:57:55.398Z,15.90
2019-01-16T21:00:53.008Z,12.90
2019-01-16T21:03:44.772Z,13.87
2019-01-16T21:06:42.491Z,17.07
2019-01-16T21:09:30.163Z,10.93
2019-01-16T21:12:27.842Z,14.50
2019-01-16T21:15:19.548Z,15.03
2019-01-16T21:18:06.622Z,16.63
2019-01-16T21:20:55.318Z,19.97
2019-01-16T21:23:59.108Z,13.93
2019-01-16T21:27:00.167Z,15.40
2019-01-16T21:29:57.940Z,9.83
2019-01-16T21:32:44.746Z,14.77
2019-01-16T21:35:31.954Z,18.00
2019-01-16T21:38:35.445Z,21.00
2019-01-16T21:41:30.452Z,20.13
2019-01-16T21:44:17.428Z,20.87
2019-01-16T21:47:04.995Z,19.30
2019-01-16T21:50:08.506Z,19.10
2019-01-16T21:53:03.349Z,15.17
2019-01-16T21:55:50.100Z,19.13
2019-01-16T21:58:48.071Z,18.73
2019-01-16T22:01:48.513Z,19.23
2019-01-16T22:04:52.208Z,14.33
2019-01-16T22:07:41.594Z,8.60
2019-01-16T22:10:29.416Z,16.97
2019-01-16T22:13:17.652Z,11.30
2019-01-16T22:16:10.836Z,15.50
2019-01-16T22:18:59.297Z,17.57
2019-01-16T22:22:00.021Z,23.47
2019-01-16T22:25:00.738Z,17.03
2019-01-16T22:27:43.200Z,23.07
2019-01-16T22:30:39.361Z,31.33
2019-01-16T22:33:21.404Z,24.30
2019-01-16T22:36:13.858Z,24.13
2019-01-16T22:39:08.549Z,20.13
2019-01-16T22:41:51.945Z,24.53
2019-01-16T22:44:46.587Z,15.77
2019-01-16T22:47:33.935Z,21.33
2019-01-16T22:50:28.871Z,19.17
2019-01-16T22:53:20.197Z,22.80
2019-01-16T22:56:07.673Z,21.73
2019-01-16T22:59:05.131Z,18.93
2019-01-16T23:01:50.992Z,21.93
2019-01-16T23:04:38.019Z,16.50
2019-01-16T23:07:16.900Z,15.93
2019-01-16T23:10:05.875Z,24.00
2019-01-16T23:13:02.333Z,18.07
2019-01-16T23:15:44.818Z,14.43
2019-01-16T23:18:32.261Z,24.93
2019-01-16T23:21:28.617Z,24.90
2019-01-16T23:24:15.973Z,21.77
2019-01-16T23:27:07.975Z,22.00
2019-01-16T23:29:54.199Z,21.03
2019-01-16T23:32:48.607Z,13.90
2019-01-16T23:35:36.051Z,18.70
2019-01-16T23:38:20.558Z,19.60
2019-01-16T23:41:07.703Z,18.87
2019-01-16T23:44:07.342Z,21.03
2019-01-16T23:46:56.045Z,20.13
2019-01-16T23:49:56.715Z,23.10
2019-01-16T23:52:51.139Z,15.60
2019-01-16T23:55:36.774Z,21.90
2019-01-16T23:58:18.059Z,16.80
